sensor_id;sensor_type;location;lat;lon;timestamp;P1;durP1;ratioP1;P2;durP2;ratioP2
20314;SDS011;10315;50.958;13.080;2023-04-01T00:09:47;1.23;;;1.13;;
20314;SDS011;10315;50.958;13.080;2023-04-01T00:19:55;3.53;;;1.17;;
20314;SDS011;10315;50.958;13.080;2023-04-01T00:29:58;3.73;;;1.87;;
20314;SDS011;10315;50.958;13.080;2023-04-01T00:40:01;5.40;;;1.60;;
20314;SDS011;10315;50.958;13.080;2023-04-01T00:50:06;3.67;;;1.40;;
20314;SDS011;10315;50.958;13.080;2023-04-01T01:00:09;4.93;;;1.30;;
20314;SDS011;10315;50.958;13.080;2023-04-01T01:10:16;8.30;;;1.77;;
20314;SDS011;10315;50.958;13.080;2023-04-01T01:20:39;6.53;;;1.50;;
20314;SDS011;10315;50.958;13.080;2023-04-01T01:31:03;3.27;;;1.23;;
20314;SDS011;10315;50.958;13.080;2023-04-01T01:41:14;5.07;;;1.40;;
20314;SDS011;10315;50.958;13.080;2023-04-01T01:51:18;3.37;;;1.30;;
20314;SDS011;10315;50.958;13.080;2023-04-01T02:01:24;4.33;;;1.23;;
20314;SDS011;10315;50.958;13.080;2023-04-01T02:11:28;3.37;;;1.40;;
20314;SDS011;10315;50.958;13.080;2023-04-01T02:21:34;3.50;;;1.33;;
20314;SDS011;10315;50.958;13.080;2023-04-01T02:31:37;4.90;;;1.47;;
20314;SDS011;10315;50.958;13.080;2023-04-01T02:41:41;4.47;;;1.60;;
20314;SDS011;10315;50.958;13.080;2023-04-01T02:51:44;7.77;;;1.80;;
20314;SDS011;10315;50.958;13.080;2023-04-01T03:01:47;2.67;;;1.40;;
20314;SDS011;10315;50.958;13.080;2023-04-01T03:11:48;8.30;;;1.67;;
20314;SDS011;10315;50.958;13.080;2023-04-01T03:21:51;5.17;;;1.10;;
20314;SDS011;10315;50.958;13.080;2023-04-01T03:31:53;5.20;;;1.40;;
20314;SDS011;10315;50.958;13.080;2023-04-01T03:41:59;2.20;;;1.30;;
20314;SDS011;10315;50.958;13.080;2023-04-01T03:52:00;1.97;;;0.90;;
20314;SDS011;10315;50.958;13.080;2023-04-01T04:02:03;6.93;;;1.40;;
20314;SDS011;10315;50.958;13.080;2023-04-01T04:12:05;6.20;;;1.80;;
20314;SDS011;10315;50.958;13.080;2023-04-01T04:22:08;6.00;;;1.07;;
20314;SDS011;10315;50.958;13.080;2023-04-01T04:32:10;4.03;;;1.20;;
20314;SDS011;10315;50.958;13.080;2023-04-01T04:42:13;2.70;;;1.10;;
20314;SDS011;10315;50.958;13.080;2023-04-01T04:52:14;4.60;;;1.03;;
20314;SDS011;10315;50.958;13.080;2023-04-01T05:02:17;9.57;;;1.10;;
20314;SDS011;10315;50.958;13.080;2023-04-01T05:12:19;4.70;;;1.73;;
20314;SDS011;10315;50.958;13.080;2023-04-01T05:22:22;6.13;;;1.40;;
20314;SDS011;10315;50.958;13.080;2023-04-01T05:32:24;11.50;;;1.30;;
20314;SDS011;10315;50.958;13.080;2023-04-01T05:42:27;2.27;;;1.00;;
20314;SDS011;10315;50.958;13.080;2023-04-01T05:52:29;4.63;;;1.50;;
20314;SDS011;10315;50.958;13.080;2023-04-01T06:02:32;2.67;;;1.10;;
20314;SDS011;10315;50.958;13.080;2023-04-01T06:12:45;5.37;;;1.20;;
20314;SDS011;10315;50.958;13.080;2023-04-01T06:23:12;6.27;;;1.23;;
20314;SDS011;10315;50.958;13.080;2023-04-01T06:33:31;2.73;;;1.20;;
20314;SDS011;10315;50.958;13.080;2023-04-01T06:54:16;1.53;;;0.90;;
20314;SDS011;10315;50.958;13.080;2023-04-01T07:04:23;4.63;;;0.83;;
20314;SDS011;10315;50.958;13.080;2023-04-01T07:14:30;3.90;;;1.00;;
20314;SDS011;10315;50.958;13.080;2023-04-01T07:24:37;4.60;;;1.20;;
20314;SDS011;10315;50.958;13.080;2023-04-01T07:34:46;2.80;;;1.03;;
20314;SDS011;10315;50.958;13.080;2023-04-01T07:44:59;1.67;;;1.00;;
20314;SDS011;10315;50.958;13.080;2023-04-01T07:55:09;1.67;;;0.80;;
20314;SDS011;10315;50.958;13.080;2023-04-01T08:05:22;2.87;;;0.90;;
20314;SDS011;10315;50.958;13.080;2023-04-01T08:15:27;2.20;;;0.80;;
20314;SDS011;10315;50.958;13.080;2023-04-01T08:25:34;2.73;;;0.90;;
20314;SDS011;10315;50.958;13.080;2023-04-01T08:35:41;1.73;;;0.90;;
20314;SDS011;10315;50.958;13.080;2023-04-01T08:46:14;4.30;;;1.07;;
20314;SDS011;10315;50.958;13.080;2023-04-01T08:56:29;2.77;;;0.80;;
20314;SDS011;10315;50.958;13.080;2023-04-01T09:06:38;3.03;;;1.03;;
20314;SDS011;10315;50.958;13.080;2023-04-01T09:27:27;0.97;;;0.90;;
20314;SDS011;10315;50.958;13.080;2023-04-01T09:37:34;3.00;;;0.90;;
20314;SDS011;10315;50.958;13.080;2023-04-01T09:47:45;0.60;;;0.60;;
20314;SDS011;10315;50.958;13.080;2023-04-01T10:08:46;0.60;;;0.50;;
20314;SDS011;10315;50.958;13.080;2023-04-01T10:30:00;0.73;;;0.70;;
20314;SDS011;10315;50.958;13.080;2023-04-01T10:40:24;2.10;;;0.50;;
20314;SDS011;10315;50.958;13.080;2023-04-01T10:50:49;0.40;;;0.40;;
20314;SDS011;10315;50.958;13.080;2023-04-01T11:01:06;0.97;;;0.57;;
20314;SDS011;10315;50.958;13.080;2023-04-01T11:32:37;0.90;;;0.70;;
20314;SDS011;10315;50.958;13.080;2023-04-01T11:42:47;0.77;;;0.30;;
20314;SDS011;10315;50.958;13.080;2023-04-01T11:53:00;0.57;;;0.50;;
20314;SDS011;10315;50.958;13.080;2023-04-01T12:03:17;1.70;;;0.40;;
20314;SDS011;10315;50.958;13.080;2023-04-01T12:13:34;1.27;;;0.63;;
20314;SDS011;10315;50.958;13.080;2023-04-01T12:23:49;0.30;;;0.30;;
20314;SDS011;10315;50.958;13.080;2023-04-01T12:34:14;0.50;;;0.50;;
20314;SDS011;10315;50.958;13.080;2023-04-01T12:44:39;0.40;;;0.40;;
20314;SDS011;10315;50.958;13.080;2023-04-01T12:55:06;2.57;;;0.40;;
20314;SDS011;10315;50.958;13.080;2023-04-01T13:05:31;0.97;;;0.50;;
20314;SDS011;10315;50.958;13.080;2023-04-01T13:16:03;0.67;;;0.47;;
20314;SDS011;10315;50.958;13.080;2023-04-01T13:26:17;0.40;;;0.40;;
20314;SDS011;10315;50.958;13.080;2023-04-01T13:36:26;0.80;;;0.67;;
20314;SDS011;10315;50.958;13.080;2023-04-01T13:46:41;0.77;;;0.50;;
20314;SDS011;10315;50.958;13.080;2023-04-01T13:57:00;1.90;;;0.70;;
20314;SDS011;10315;50.958;13.080;2023-04-01T14:07:22;0.60;;;0.50;;
20314;SDS011;10315;50.958;13.080;2023-04-01T14:17:47;1.27;;;0.50;;
20314;SDS011;10315;50.958;13.080;2023-04-01T14:28:00;2.03;;;0.90;;
20314;SDS011;10315;50.958;13.080;2023-04-01T14:38:23;0.63;;;0.63;;
20314;SDS011;10315;50.958;13.080;2023-04-01T14:48:30;2.33;;;0.50;;
20314;SDS011;10315;50.958;13.080;2023-04-01T14:58:44;1.70;;;0.70;;
20314;SDS011;10315;50.958;13.080;2023-04-01T15:08:48;1.13;;;0.90;;
20314;SDS011;10315;50.958;13.080;2023-04-01T15:18:59;0.97;;;0.87;;
20314;SDS011;10315;50.958;13.080;2023-04-01T15:29:09;0.43;;;0.43;;
20314;SDS011;10315;50.958;13.080;2023-04-01T15:39:36;0.93;;;0.63;;
20314;SDS011;10315;50.958;13.080;2023-04-01T15:49:45;2.87;;;0.50;;
20314;SDS011;10315;50.958;13.080;2023-04-01T15:59:58;1.00;;;0.50;;
20314;SDS011;10315;50.958;13.080;2023-04-01T16:10:22;1.53;;;0.50;;
20314;SDS011;10315;50.958;13.080;2023-04-01T16:20:49;8.63;;;4.07;;
20314;SDS011;10315;50.958;13.080;2023-04-01T16:30:57;0.67;;;0.67;;
20314;SDS011;10315;50.958;13.080;2023-04-01T16:41:11;0.50;;;0.50;;
20314;SDS011;10315;50.958;13.080;2023-04-01T16:51:18;0.60;;;0.47;;
20314;SDS011;10315;50.958;13.080;2023-04-01T17:01:24;2.20;;;1.20;;
20314;SDS011;10315;50.958;13.080;2023-04-01T17:11:31;3.03;;;0.93;;
20314;SDS011;10315;50.958;13.080;2023-04-01T17:21:53;2.10;;;1.50;;
20314;SDS011;10315;50.958;13.080;2023-04-01T17:32:03;0.50;;;0.50;;
20314;SDS011;10315;50.958;13.080;2023-04-01T17:42:14;1.07;;;0.40;;
20314;SDS011;10315;50.958;13.080;2023-04-01T17:52:19;0.70;;;0.60;;
20314;SDS011;10315;50.958;13.080;2023-04-01T18:02:31;0.87;;;0.87;;
20314;SDS011;10315;50.958;13.080;2023-04-01T18:13:00;1.00;;;0.90;;
20314;SDS011;10315;50.958;13.080;2023-04-01T18:23:22;1.17;;;0.90;;
20314;SDS011;10315;50.958;13.080;2023-04-01T18:33:29;0.90;;;0.90;;
20314;SDS011;10315;50.958;13.080;2023-04-01T18:43:39;1.77;;;1.30;;
20314;SDS011;10315;50.958;13.080;2023-04-01T18:53:56;1.87;;;1.60;;
20314;SDS011;10315;50.958;13.080;2023-04-01T19:04:05;4.77;;;2.93;;
20314;SDS011;10315;50.958;13.080;2023-04-01T19:14:24;2.33;;;1.87;;
20314;SDS011;10315;50.958;13.080;2023-04-01T19:34:59;3.90;;;2.90;;
20314;SDS011;10315;50.958;13.080;2023-04-01T19:45:18;4.60;;;2.53;;
20314;SDS011;10315;50.958;13.080;2023-04-01T19:55:32;4.27;;;3.00;;
20314;SDS011;10315;50.958;13.080;2023-04-01T20:05:51;6.27;;;4.00;;
20314;SDS011;10315;50.958;13.080;2023-04-01T20:16:03;5.43;;;3.77;;
20314;SDS011;10315;50.958;13.080;2023-04-01T20:26:10;6.60;;;3.10;;
20314;SDS011;10315;50.958;13.080;2023-04-01T20:36:16;6.40;;;3.27;;
20314;SDS011;10315;50.958;13.080;2023-04-01T20:46:22;5.90;;;2.00;;
20314;SDS011;10315;50.958;13.080;2023-04-01T20:56:34;3.53;;;2.17;;
20314;SDS011;10315;50.958;13.080;2023-04-01T21:17:22;2.70;;;1.50;;
20314;SDS011;10315;50.958;13.080;2023-04-01T21:27:36;3.80;;;0.97;;
20314;SDS011;10315;50.958;13.080;2023-04-01T21:48:43;1.43;;;0.90;;
20314;SDS011;10315;50.958;13.080;2023-04-01T21:59:10;4.20;;;0.83;;
20314;SDS011;10315;50.958;13.080;2023-04-01T22:09:38;1.07;;;0.80;;
20314;SDS011;10315;50.958;13.080;2023-04-01T22:20:01;5.13;;;2.77;;
20314;SDS011;10315;50.958;13.080;2023-04-01T22:30:17;6.40;;;2.70;;
20314;SDS011;10315;50.958;13.080;2023-04-01T22:40:29;8.30;;;3.07;;
20314;SDS011;10315;50.958;13.080;2023-04-01T22:50:35;6.87;;;3.63;;
20314;SDS011;10315;50.958;13.080;2023-04-01T23:00:43;11.10;;;4.20;;
20314;SDS011;10315;50.958;13.080;2023-04-01T23:10:49;8.73;;;4.00;;
20314;SDS011;10315;50.958;13.080;2023-04-01T23:20:58;12.07;;;4.60;;
20314;SDS011;10315;50.958;13.080;2023-04-01T23:41:43;185.30;;;15.57;;
20314;SDS011;10315;50.958;13.080;2023-04-01T23:51:52;134.50;;;11.93;;
